sensor_id;sensor_type;location;lat;lon;timestamp;pressure;altitude;pressure_sealevel;temperature;humidity
71621;BME280;59471;42.254;23.102;2023-08-21T00:01:34;96143.06;;;22.39;58.52
71621;BME280;59471;42.254;23.102;2023-08-21T00:03:59;96144.50;;;22.30;59.24
71621;BME280;59471;42.254;23.102;2023-08-21T00:06:25;96138.06;;;22.26;58.85
71621;BME280;59471;42.254;23.102;2023-08-21T00:08:50;96145.69;;;22.56;57.49
71621;BME280;59471;42.254;23.102;2023-08-21T00:11:16;96134.47;;;22.37;59.02
71621;BME280;59471;42.254;23.102;2023-08-21T00:13:41;96143.19;;;22.50;57.39
71621;BME280;59471;42.254;23.102;2023-08-21T00:16:10;96142.25;;;22.22;58.29
71621;BME280;59471;42.254;23.102;2023-08-21T00:18:36;96143.06;;;22.39;57.71
71621;BME280;59471;42.254;23.102;2023-08-21T00:21:02;96146.78;;;22.38;58.89
71621;BME280;59471;42.254;23.102;2023-08-21T00:23:28;96146.13;;;21.97;60.31
71621;BME280;59471;42.254;23.102;2023-08-21T00:25:53;96142.13;;;21.83;60.01
71621;BME280;59471;42.254;23.102;2023-08-21T00:28:19;96132.09;;;21.90;60.02
71621;BME280;59471;42.254;23.102;2023-08-21T00:30:44;96147.84;;;21.75;60.70
71621;BME280;59471;42.254;23.102;2023-08-21T00:33:10;96141.25;;;21.94;59.97
71621;BME280;59471;42.254;23.102;2023-08-21T00:35:35;96135.75;;;21.84;60.48
71621;BME280;59471;42.254;23.102;2023-08-21T00:38:01;96138.50;;;21.89;60.03
71621;BME280;59471;42.254;23.102;2023-08-21T00:40:26;96137.84;;;21.82;60.06
71621;BME280;59471;42.254;23.102;2023-08-21T00:42:52;96137.38;;;21.85;60.18
71621;BME280;59471;42.254;23.102;2023-08-21T00:45:17;96144.16;;;21.93;59.83
71621;BME280;59471;42.254;23.102;2023-08-21T00:47:43;96143.19;;;21.82;60.39
71621;BME280;59471;42.254;23.102;2023-08-21T00:50:09;96153.97;;;21.59;61.64
71621;BME280;59471;42.254;23.102;2023-08-21T00:52:38;96144.72;;;21.49;61.19
71621;BME280;59471;42.254;23.102;2023-08-21T00:55:06;96151.88;;;21.61;61.12
71621;BME280;59471;42.254;23.102;2023-08-21T00:57:33;96135.31;;;21.59;61.08
71621;BME280;59471;42.254;23.102;2023-08-21T01:00:00;96149.09;;;21.56;61.75
71621;BME280;59471;42.254;23.102;2023-08-21T01:02:26;96149.19;;;21.32;62.57
71621;BME280;59471;42.254;23.102;2023-08-21T01:04:51;96154.56;;;21.09;62.73
71621;BME280;59471;42.254;23.102;2023-08-21T01:07:17;96153.22;;;20.94;62.96
71621;BME280;59471;42.254;23.102;2023-08-21T01:09:49;96150.31;;;21.08;63.32
71621;BME280;59471;42.254;23.102;2023-08-21T01:12:25;96153.44;;;21.04;62.77
71621;BME280;59471;42.254;23.102;2023-08-21T01:15:00;96156.13;;;21.33;62.36
71621;BME280;59471;42.254;23.102;2023-08-21T01:17:30;96150.44;;;21.01;63.17
71621;BME280;59471;42.254;23.102;2023-08-21T01:19:56;96150.19;;;21.02;63.07
71621;BME280;59471;42.254;23.102;2023-08-21T01:22:42;96161.81;;;20.73;64.19
71621;BME280;59471;42.254;23.102;2023-08-21T01:25:15;96164.94;;;20.81;63.79
71621;BME280;59471;42.254;23.102;2023-08-21T01:27:44;96162.16;;;20.76;64.51
71621;BME280;59471;42.254;23.102;2023-08-21T01:30:12;96161.09;;;20.89;63.73
71621;BME280;59471;42.254;23.102;2023-08-21T01:35:22;96161.09;;;20.89;63.97
71621;BME280;59471;42.254;23.102;2023-08-21T01:37:49;96171.41;;;20.74;63.98
71621;BME280;59471;42.254;23.102;2023-08-21T01:40:24;96166.22;;;20.79;63.71
71621;BME280;59471;42.254;23.102;2023-08-21T01:42:52;96177.78;;;20.73;64.00
71621;BME280;59471;42.254;23.102;2023-08-21T01:45:19;96174.31;;;20.84;63.84
71621;BME280;59471;42.254;23.102;2023-08-21T01:47:44;96164.28;;;20.74;63.93
71621;BME280;59471;42.254;23.102;2023-08-21T01:50:10;96173.97;;;20.33;65.26
71621;BME280;59471;42.254;23.102;2023-08-21T01:52:35;96174.34;;;20.60;64.50
71621;BME280;59471;42.254;23.102;2023-08-21T01:55:01;96171.88;;;20.82;63.96
71621;BME280;59471;42.254;23.102;2023-08-21T01:57:26;96171.53;;;20.79;63.98
71621;BME280;59471;42.254;23.102;2023-08-21T01:59:52;96164.06;;;20.52;64.44
71621;BME280;59471;42.254;23.102;2023-08-21T02:02:18;96173.28;;;20.62;65.06
71621;BME280;59471;42.254;23.102;2023-08-21T02:04:43;96179.84;;;20.47;65.39
71621;BME280;59471;42.254;23.102;2023-08-21T02:07:09;96168.53;;;20.40;64.86
71621;BME280;59471;42.254;23.102;2023-08-21T02:09:34;96180.00;;;20.64;64.63
71621;BME280;59471;42.254;23.102;2023-08-21T02:12:00;96181.03;;;20.51;64.65
71621;BME280;59471;42.254;23.102;2023-08-21T02:14:25;96175.47;;;20.41;65.46
71621;BME280;59471;42.254;23.102;2023-08-21T02:16:51;96177.91;;;20.66;64.43
71621;BME280;59471;42.254;23.102;2023-08-21T02:19:16;96184.38;;;20.70;64.20
71621;BME280;59471;42.254;23.102;2023-08-21T02:21:42;96180.31;;;20.44;65.18
71621;BME280;59471;42.254;23.102;2023-08-21T02:24:08;96183.81;;;20.56;65.04
71621;BME280;59471;42.254;23.102;2023-08-21T02:26:33;96181.50;;;20.72;64.88
71621;BME280;59471;42.254;23.102;2023-08-21T02:28:59;96179.28;;;20.45;65.26
71621;BME280;59471;42.254;23.102;2023-08-21T02:31:24;96181.03;;;20.51;65.26
71621;BME280;59471;42.254;23.102;2023-08-21T02:33:50;96176.91;;;20.55;65.10
71621;BME280;59471;42.254;23.102;2023-08-21T02:36:16;96165.75;;;20.58;65.55
71621;BME280;59471;42.254;23.102;2023-08-21T02:38:41;96161.22;;;20.35;65.83
71621;BME280;59471;42.254;23.102;2023-08-21T02:41:07;96167.03;;;20.44;65.86
71621;BME280;59471;42.254;23.102;2023-08-21T02:43:33;96167.03;;;20.44;65.63
71621;BME280;59471;42.254;23.102;2023-08-21T02:45:59;96165.28;;;20.38;65.83
71621;BME280;59471;42.254;23.102;2023-08-21T02:48:24;96159.28;;;20.31;65.97
71621;BME280;59471;42.254;23.102;2023-08-21T02:50:50;96167.81;;;20.33;66.08
71621;BME280;59471;42.254;23.102;2023-08-21T02:53:16;96158.34;;;20.37;66.07
71621;BME280;59471;42.254;23.102;2023-08-21T02:55:41;96162.03;;;20.36;66.04
71621;BME280;59471;42.254;23.102;2023-08-21T02:58:07;96160.88;;;20.32;65.90
71621;BME280;59471;42.254;23.102;2023-08-21T03:00:32;96158.47;;;20.30;66.39
71621;BME280;59471;42.254;23.102;2023-08-21T03:02:58;96160.66;;;20.22;66.40
71621;BME280;59471;42.254;23.102;2023-08-21T03:05:23;96167.59;;;20.23;66.44
71621;BME280;59471;42.254;23.102;2023-08-21T03:07:49;96167.13;;;20.02;66.61
71621;BME280;59471;42.254;23.102;2023-08-21T03:10:14;96167.56;;;20.11;67.13
71621;BME280;59471;42.254;23.102;2023-08-21T03:12:40;96163.72;;;19.83;67.49
71621;BME280;59471;42.254;23.102;2023-08-21T03:15:06;96158.38;;;19.53;68.49
71621;BME280;59471;42.254;23.102;2023-08-21T03:17:32;96172.97;;;19.62;68.47
71621;BME280;59471;42.254;23.102;2023-08-21T03:19:58;96167.28;;;19.89;67.84
71621;BME280;59471;42.254;23.102;2023-08-21T03:22:23;96171.84;;;20.00;67.33
71621;BME280;59471;42.254;23.102;2023-08-21T03:24:49;96179.78;;;19.88;67.32
71621;BME280;59471;42.254;23.102;2023-08-21T03:27:18;96169.66;;;20.09;67.14
71621;BME280;59471;42.254;23.102;2023-08-21T03:29:44;96174.16;;;20.08;67.02
71621;BME280;59471;42.254;23.102;2023-08-21T03:32:17;96170.22;;;20.11;66.59
71621;BME280;59471;42.254;23.102;2023-08-21T03:34:43;96175.66;;;20.04;67.53
71621;BME280;59471;42.254;23.102;2023-08-21T03:37:09;96178.19;;;19.99;67.15
71621;BME280;59471;42.254;23.102;2023-08-21T03:39:35;96174.56;;;19.82;68.01
71621;BME280;59471;42.254;23.102;2023-08-21T03:42:01;96175.59;;;19.81;67.88
71621;BME280;59471;42.254;23.102;2023-08-21T03:44:26;96178.63;;;19.84;67.99
71621;BME280;59471;42.254;23.102;2023-08-21T03:46:52;96187.44;;;19.66;68.27
71621;BME280;59471;42.254;23.102;2023-08-21T03:49:18;96189.56;;;19.46;68.66
71621;BME280;59471;42.254;23.102;2023-08-21T03:51:43;96192.59;;;19.80;68.11
71621;BME280;59471;42.254;23.102;2023-08-21T03:54:09;96195.13;;;19.75;67.83
71621;BME280;59471;42.254;23.102;2023-08-21T03:56:36;96202.19;;;19.62;68.66
71621;BME280;59471;42.254;23.102;2023-08-21T03:59:01;96195.22;;;19.68;68.88
71621;BME280;59471;42.254;23.102;2023-08-21T04:01:27;96200.44;;;19.75;67.96
71621;BME280;59471;42.254;23.102;2023-08-21T04:03:52;96193.16;;;19.82;68.44
71621;BME280;59471;42.254;23.102;2023-08-21T04:06:18;96202.81;;;19.64;68.84
71621;BME280;59471;42.254;23.102;2023-08-21T04:08:43;96208.66;;;19.85;68.38
71621;BME280;59471;42.254;23.102;2023-08-21T04:11:09;96209.56;;;19.79;68.59
71621;BME280;59471;42.254;23.102;2023-08-21T04:13:35;96211.44;;;19.60;69.38
71621;BME280;59471;42.254;23.102;2023-08-21T04:16:00;96222.00;;;19.66;69.53
71621;BME280;59471;42.254;23.102;2023-08-21T04:18:26;96220.28;;;19.72;69.36
71621;BME280;59471;42.254;23.102;2023-08-21T04:20:51;96220.06;;;19.74;69.26
71621;BME280;59471;42.254;23.102;2023-08-21T04:23:17;96210.91;;;19.51;70.15
71621;BME280;59471;42.254;23.102;2023-08-21T04:25:43;96218.44;;;19.54;70.22
71621;BME280;59471;42.254;23.102;2023-08-21T04:28:09;96227.63;;;19.88;69.04
71621;BME280;59471;42.254;23.102;2023-08-21T04:30:35;96216.53;;;19.80;69.55
71621;BME280;59471;42.254;23.102;2023-08-21T04:33:00;96221.09;;;20.03;68.19
71621;BME280;59471;42.254;23.102;2023-08-21T04:35:26;96224.69;;;20.08;68.07
71621;BME280;59471;42.254;23.102;2023-08-21T04:37:52;96222.38;;;20.24;67.30
71621;BME280;59471;42.254;23.102;2023-08-21T04:40:17;96214.41;;;20.12;68.12
71621;BME280;59471;42.254;23.102;2023-08-21T04:42:45;96214.41;;;20.24;67.87
71621;BME280;59471;42.254;23.102;2023-08-21T04:45:11;96224.25;;;20.35;67.56
71621;BME280;59471;42.254;23.102;2023-08-21T04:47:36;96227.97;;;20.34;68.41
71621;BME280;59471;42.254;23.102;2023-08-21T04:50:02;96217.81;;;20.54;67.53
71621;BME280;59471;42.254;23.102;2023-08-21T04:52:27;96225.47;;;20.63;67.52
71621;BME280;59471;42.254;23.102;2023-08-21T04:54:54;96230.56;;;20.76;66.95
71621;BME280;59471;42.254;23.102;2023-08-21T04:57:19;96233.56;;;20.68;66.99
71621;BME280;59471;42.254;23.102;2023-08-21T04:59:47;96228.59;;;20.59;66.38
71621;BME280;59471;42.254;23.102;2023-08-21T05:02:12;96243.28;;;20.97;65.68
71621;BME280;59471;42.254;23.102;2023-08-21T05:04:38;96247.31;;;21.35;63.92
71621;BME280;59471;42.254;23.102;2023-08-21T05:07:04;96247.03;;;21.48;63.17
71621;BME280;59471;42.254;23.102;2023-08-21T05:09:33;96251.34;;;21.26;64.40
71621;BME280;59471;42.254;23.102;2023-08-21T05:11:58;96236.78;;;21.17;65.11
71621;BME280;59471;42.254;23.102;2023-08-21T05:14:24;96246.63;;;21.28;65.96
71621;BME280;59471;42.254;23.102;2023-08-21T05:16:50;96244.50;;;21.42;65.16
71621;BME280;59471;42.254;23.102;2023-08-21T05:19:16;96247.97;;;21.54;64.30
71621;BME280;59471;42.254;23.102;2023-08-21T05:21:42;96246.28;;;21.65;64.37
71621;BME280;59471;42.254;23.102;2023-08-21T05:24:08;96242.97;;;21.86;63.44
71621;BME280;59471;42.254;23.102;2023-08-21T05:26:35;96236.78;;;21.97;63.44
71621;BME280;59471;42.254;23.102;2023-08-21T05:29:02;96252.63;;;22.04;62.88
71621;BME280;59471;42.254;23.102;2023-08-21T05:31:27;96256.88;;;22.17;63.18
71621;BME280;59471;42.254;23.102;2023-08-21T05:33:53;96247.25;;;22.16;62.56
71621;BME280;59471;42.254;23.102;2023-08-21T05:36:19;96242.84;;;22.38;62.12
71621;BME280;59471;42.254;23.102;2023-08-21T05:38:44;96243.47;;;22.46;61.50
71621;BME280;59471;42.254;23.102;2023-08-21T05:41:11;96251.31;;;22.52;61.42
71621;BME280;59471;42.254;23.102;2023-08-21T05:43:36;96243.63;;;22.22;62.11
71621;BME280;59471;42.254;23.102;2023-08-21T05:46:05;96252.88;;;22.48;62.32
71621;BME280;59471;42.254;23.102;2023-08-21T05:48:31;96253.00;;;22.75;61.15
71621;BME280;59471;42.254;23.102;2023-08-21T05:50:56;96253.81;;;22.93;61.39
71621;BME280;59471;42.254;23.102;2023-08-21T05:53:22;96242.19;;;22.99;59.97
71621;BME280;59471;42.254;23.102;2023-08-21T05:55:48;96247.03;;;23.02;60.32
71621;BME280;59471;42.254;23.102;2023-08-21T05:58:13;96249.66;;;23.19;60.12
71621;BME280;59471;42.254;23.102;2023-08-21T06:00:39;96247.38;;;23.27;59.68
71621;BME280;59471;42.254;23.102;2023-08-21T06:03:05;96244.25;;;23.35;60.11
71621;BME280;59471;42.254;23.102;2023-08-21T06:05:30;96239.69;;;23.58;59.59
71621;BME280;59471;42.254;23.102;2023-08-21T06:07:56;96242.94;;;23.60;59.83
71621;BME280;59471;42.254;23.102;2023-08-21T06:10:21;96246.31;;;23.72;58.71
71621;BME280;59471;42.254;23.102;2023-08-21T06:12:47;96242.72;;;23.84;57.99
71621;BME280;59471;42.254;23.102;2023-08-21T06:15:13;96251.13;;;23.97;57.57
71621;BME280;59471;42.254;23.102;2023-08-21T06:17:39;96244.28;;;24.07;57.89
71621;BME280;59471;42.254;23.102;2023-08-21T06:20:06;96242.78;;;24.21;57.05
71621;BME280;59471;42.254;23.102;2023-08-21T06:22:34;96246.38;;;24.32;57.20
71621;BME280;59471;42.254;23.102;2023-08-21T06:25:00;96243.88;;;24.52;56.79
71621;BME280;59471;42.254;23.102;2023-08-21T06:27:26;96243.59;;;24.48;56.29
71621;BME280;59471;42.254;23.102;2023-08-21T06:29:52;96245.59;;;24.63;56.67
71621;BME280;59471;42.254;23.102;2023-08-21T06:32:17;96239.72;;;24.66;56.17
71621;BME280;59471;42.254;23.102;2023-08-21T06:34:43;96235.00;;;24.84;53.79
71621;BME280;59471;42.254;23.102;2023-08-21T06:37:09;96243.53;;;24.76;54.58
71621;BME280;59471;42.254;23.102;2023-08-21T06:39:34;96236.63;;;24.85;55.34
71621;BME280;59471;42.254;23.102;2023-08-21T06:42:00;96237.81;;;25.04;54.80
71621;BME280;59471;42.254;23.102;2023-08-21T06:44:26;96242.16;;;25.10;54.36
71621;BME280;59471;42.254;23.102;2023-08-21T06:46:51;96239.81;;;25.19;54.21
71621;BME280;59471;42.254;23.102;2023-08-21T06:49:17;96243.66;;;25.43;53.42
71621;BME280;59471;42.254;23.102;2023-08-21T06:51:43;96247.72;;;25.56;52.68
71621;BME280;59471;42.254;23.102;2023-08-21T06:54:08;96239.22;;;25.75;53.00
71621;BME280;59471;42.254;23.102;2023-08-21T06:56:34;96243.56;;;25.91;50.66
71621;BME280;59471;42.254;23.102;2023-08-21T06:58:59;96236.09;;;25.93;51.64
71621;BME280;59471;42.254;23.102;2023-08-21T07:01:25;96228.56;;;26.00;50.79
71621;BME280;59471;42.254;23.102;2023-08-21T07:03:50;96235.03;;;26.09;51.50
71621;BME280;59471;42.254;23.102;2023-08-21T07:06:16;96236.41;;;26.27;51.12
71621;BME280;59471;42.254;23.102;2023-08-21T07:08:42;96220.03;;;26.54;50.61
71621;BME280;59471;42.254;23.102;2023-08-21T07:11:07;96230.78;;;26.65;50.67
71621;BME280;59471;42.254;23.102;2023-08-21T07:13:35;96227.03;;;26.66;49.30
71621;BME280;59471;42.254;23.102;2023-08-21T07:16:01;96229.69;;;26.76;49.70
71621;BME280;59471;42.254;23.102;2023-08-21T07:18:34;96225.34;;;27.06;49.68
71621;BME280;59471;42.254;23.102;2023-08-21T07:21:01;96223.72;;;27.25;46.45
71621;BME280;59471;42.254;23.102;2023-08-21T07:23:28;96221.56;;;27.12;46.91
71621;BME280;59471;42.254;23.102;2023-08-21T07:25:54;96216.09;;;27.47;45.77
71621;BME280;59471;42.254;23.102;2023-08-21T07:28:19;96224.09;;;27.63;44.18
71621;BME280;59471;42.254;23.102;2023-08-21T07:30:45;96212.28;;;27.59;43.32
71621;BME280;59471;42.254;23.102;2023-08-21T07:33:10;96216.81;;;27.68;44.65
71621;BME280;59471;42.254;23.102;2023-08-21T07:35:36;96208.31;;;27.95;43.75
71621;BME280;59471;42.254;23.102;2023-08-21T07:38:02;96204.03;;;27.94;43.09
71621;BME280;59471;42.254;23.102;2023-08-21T07:40:28;96206.38;;;28.06;43.48
71621;BME280;59471;42.254;23.102;2023-08-21T07:42:53;96205.00;;;28.09;43.40
71621;BME280;59471;42.254;23.102;2023-08-21T07:45:19;96207.59;;;28.24;44.14
71621;BME280;59471;42.254;23.102;2023-08-21T07:47:44;96204.97;;;28.53;44.01
71621;BME280;59471;42.254;23.102;2023-08-21T07:50:10;96202.97;;;28.64;42.83
71621;BME280;59471;42.254;23.102;2023-08-21T07:52:36;96197.06;;;28.62;42.79
71621;BME280;59471;42.254;23.102;2023-08-21T07:55:02;96200.84;;;28.61;43.68
71621;BME280;59471;42.254;23.102;2023-08-21T07:57:29;96190.75;;;28.72;42.17
71621;BME280;59471;42.254;23.102;2023-08-21T07:59:55;96194.59;;;28.95;42.07
71621;BME280;59471;42.254;23.102;2023-08-21T08:02:21;96192.34;;;29.07;42.26
71621;BME280;59471;42.254;23.102;2023-08-21T08:04:46;96190.03;;;29.19;42.29
71621;BME280;59471;42.254;23.102;2023-08-21T08:07:12;96189.78;;;29.40;41.51
71621;BME280;59471;42.254;23.102;2023-08-21T08:09:39;96185.88;;;29.51;40.89
71621;BME280;59471;42.254;23.102;2023-08-21T08:12:05;96182.88;;;29.52;41.61
71621;BME280;59471;42.254;23.102;2023-08-21T08:14:31;96178.06;;;29.73;42.51
71621;BME280;59471;42.254;23.102;2023-08-21T08:16:57;96174.97;;;29.99;39.60
71621;BME280;59471;42.254;23.102;2023-08-21T08:19:22;96170.50;;;30.08;39.25
71621;BME280;59471;42.254;23.102;2023-08-21T08:21:48;96166.56;;;30.19;38.22
71621;BME280;59471;42.254;23.102;2023-08-21T08:24:13;96166.63;;;30.14;39.16
71621;BME280;59471;42.254;23.102;2023-08-21T08:26:39;96156.56;;;30.01;38.65
71621;BME280;59471;42.254;23.102;2023-08-21T08:29:06;96149.56;;;30.00;39.39
71621;BME280;59471;42.254;23.102;2023-08-21T08:31:31;96150.19;;;30.11;38.66
71621;BME280;59471;42.254;23.102;2023-08-21T08:33:57;96154.97;;;30.00;39.81
71621;BME280;59471;42.254;23.102;2023-08-21T08:36:22;96150.16;;;29.97;38.60
71621;BME280;59471;42.254;23.102;2023-08-21T08:38:48;96139.94;;;29.94;38.73
71621;BME280;59471;42.254;23.102;2023-08-21T08:42:05;96142.59;;;30.13;38.61
71621;BME280;59471;42.254;23.102;2023-08-21T08:44:27;96142.91;;;30.11;38.43
71621;BME280;59471;42.254;23.102;2023-08-21T08:46:53;96132.53;;;30.18;38.24
71621;BME280;59471;42.254;23.102;2023-08-21T08:49:20;96141.19;;;30.20;37.88
71621;BME280;59471;42.254;23.102;2023-08-21T08:51:46;96122.69;;;30.28;37.62
71621;BME280;59471;42.254;23.102;2023-08-21T08:54:16;96126.78;;;30.39;39.89
71621;BME280;59471;42.254;23.102;2023-08-21T08:56:43;96119.94;;;30.60;37.74
71621;BME280;59471;42.254;23.102;2023-08-21T08:59:08;96122.31;;;30.48;37.38
71621;BME280;59471;42.254;23.102;2023-08-21T09:01:35;96117.34;;;30.55;37.84
71621;BME280;59471;42.254;23.102;2023-08-21T09:04:01;96107.94;;;30.66;37.55
71621;BME280;59471;42.254;23.102;2023-08-21T09:06:27;96128.00;;;30.93;37.27
71621;BME280;59471;42.254;23.102;2023-08-21T09:08:55;96120.38;;;31.23;33.32
71621;BME280;59471;42.254;23.102;2023-08-21T09:11:22;96132.41;;;31.44;31.58
71621;BME280;59471;42.254;23.102;2023-08-21T09:13:49;96128.50;;;31.73;30.82
71621;BME280;59471;42.254;23.102;2023-08-21T09:16:17;96123.66;;;31.83;31.46
71621;BME280;59471;42.254;23.102;2023-08-21T09:18:48;96115.69;;;31.87;30.13
71621;BME280;59471;42.254;23.102;2023-08-21T09:21:20;96108.63;;;31.91;30.59
71621;BME280;59471;42.254;23.102;2023-08-21T09:23:47;96109.41;;;32.14;30.31
71621;BME280;59471;42.254;23.102;2023-08-21T09:26:21;96105.28;;;32.17;30.32
71621;BME280;59471;42.254;23.102;2023-08-21T09:28:49;96100.13;;;32.06;30.05
71621;BME280;59471;42.254;23.102;2023-08-21T09:31:15;96093.47;;;32.13;30.57
71621;BME280;59471;42.254;23.102;2023-08-21T09:33:41;96091.13;;;32.20;29.05
71621;BME280;59471;42.254;23.102;2023-08-21T09:36:09;96098.00;;;32.26;29.68
71621;BME280;59471;42.254;23.102;2023-08-21T09:38:38;96106.25;;;32.21;29.60
71621;BME280;59471;42.254;23.102;2023-08-21T09:41:05;96090.97;;;32.25;29.26
71621;BME280;59471;42.254;23.102;2023-08-21T09:43:31;96091.53;;;32.36;29.42
71621;BME280;59471;42.254;23.102;2023-08-21T09:45:57;96092.94;;;32.33;30.21
71621;BME280;59471;42.254;23.102;2023-08-21T09:48:23;96087.28;;;32.43;29.09
71621;BME280;59471;42.254;23.102;2023-08-21T09:50:51;96088.97;;;32.62;29.40
71621;BME280;59471;42.254;23.102;2023-08-21T09:53:17;96090.69;;;32.97;28.50
71621;BME280;59471;42.254;23.102;2023-08-21T09:55:43;96084.56;;;32.83;28.33
71621;BME280;59471;42.254;23.102;2023-08-21T09:58:09;96075.16;;;32.81;27.38
71621;BME280;59471;42.254;23.102;2023-08-21T10:00:37;96088.50;;;32.68;28.23
71621;BME280;59471;42.254;23.102;2023-08-21T10:03:12;96085.69;;;32.91;27.57
71621;BME280;59471;42.254;23.102;2023-08-21T10:05:39;96077.94;;;33.07;26.93
71621;BME280;59471;42.254;23.102;2023-08-21T10:08:07;96078.34;;;32.91;28.35
71621;BME280;59471;42.254;23.102;2023-08-21T10:10:35;96072.13;;;32.82;27.97
71621;BME280;59471;42.254;23.102;2023-08-21T10:13:03;96071.22;;;32.95;27.49
71621;BME280;59471;42.254;23.102;2023-08-21T10:15:29;96061.84;;;33.02;28.00
71621;BME280;59471;42.254;23.102;2023-08-21T10:17:56;96068.72;;;33.08;27.15
71621;BME280;59471;42.254;23.102;2023-08-21T10:20:24;96072.19;;;32.99;26.67
71621;BME280;59471;42.254;23.102;2023-08-21T10:22:53;96064.41;;;33.15;26.97
71621;BME280;59471;42.254;23.102;2023-08-21T10:25:26;96059.81;;;33.33;26.94
71621;BME280;59471;42.254;23.102;2023-08-21T10:27:53;96055.66;;;33.27;26.17
71621;BME280;59471;42.254;23.102;2023-08-21T10:30:24;96060.44;;;33.47;26.93
71621;BME280;59471;42.254;23.102;2023-08-21T10:32:52;96055.84;;;33.57;26.95
71621;BME280;59471;42.254;23.102;2023-08-21T10:35:24;96064.16;;;33.52;26.71
71621;BME280;59471;42.254;23.102;2023-08-21T10:38:10;96058.38;;;33.44;26.50
71621;BME280;59471;42.254;23.102;2023-08-21T10:40:41;96063.66;;;33.67;25.99
71621;BME280;59471;42.254;23.102;2023-08-21T10:43:46;96055.38;;;33.72;25.73
71621;BME280;59471;42.254;23.102;2023-08-21T10:46:12;96053.09;;;33.91;26.52
71621;BME280;59471;42.254;23.102;2023-08-21T10:48:39;96049.91;;;34.07;27.25
71621;BME280;59471;42.254;23.102;2023-08-21T10:51:07;96051.84;;;33.80;27.47
71621;BME280;59471;42.254;23.102;2023-08-21T10:53:34;96035.41;;;33.68;27.87
71621;BME280;59471;42.254;23.102;2023-08-21T10:56:04;96041.44;;;34.00;26.82
71621;BME280;59471;42.254;23.102;2023-08-21T10:58:50;96047.81;;;33.95;28.56
71621;BME280;59471;42.254;23.102;2023-08-21T11:01:18;96047.38;;;34.02;28.47
71621;BME280;59471;42.254;23.102;2023-08-21T11:03:50;96050.19;;;34.14;26.68
71621;BME280;59471;42.254;23.102;2023-08-21T11:06:18;96056.00;;;34.04;26.53
71621;BME280;59471;42.254;23.102;2023-08-21T11:08:44;96048.13;;;34.11;27.73
71621;BME280;59471;42.254;23.102;2023-08-21T11:11:10;96048.47;;;34.09;26.87
71621;BME280;59471;42.254;23.102;2023-08-21T11:13:35;96031.50;;;34.12;26.48
71621;BME280;59471;42.254;23.102;2023-08-21T11:16:03;96049.75;;;34.12;26.44
71621;BME280;59471;42.254;23.102;2023-08-21T11:18:37;96038.94;;;34.42;27.07
71621;BME280;59471;42.254;23.102;2023-08-21T11:21:07;96030.91;;;34.54;25.38
71621;BME280;59471;42.254;23.102;2023-08-21T11:23:38;96031.72;;;34.46;25.88
71621;BME280;59471;42.254;23.102;2023-08-21T11:26:06;96025.47;;;34.54;26.75
71621;BME280;59471;42.254;23.102;2023-08-21T11:28:34;96018.19;;;34.28;26.30
71621;BME280;59471;42.254;23.102;2023-08-21T11:31:00;96029.91;;;34.58;25.64
71621;BME280;59471;42.254;23.102;2023-08-21T11:33:27;96011.75;;;34.42;25.87
71621;BME280;59471;42.254;23.102;2023-08-21T11:35:53;96022.25;;;34.52;24.84
71621;BME280;59471;42.254;23.102;2023-08-21T11:38:21;96012.13;;;34.70;25.41
71621;BME280;59471;42.254;23.102;2023-08-21T11:40:58;95997.69;;;34.99;25.34
71621;BME280;59471;42.254;23.102;2023-08-21T11:43:39;96010.09;;;34.88;25.41
71621;BME280;59471;42.254;23.102;2023-08-21T11:46:07;95998.75;;;34.86;26.07
71621;BME280;59471;42.254;23.102;2023-08-21T11:48:36;96008.03;;;34.85;25.99
71621;BME280;59471;42.254;23.102;2023-08-21T11:51:02;95999.09;;;34.84;25.06
71621;BME280;59471;42.254;23.102;2023-08-21T11:53:39;95994.22;;;34.90;25.22
71621;BME280;59471;42.254;23.102;2023-08-21T11:56:10;95985.75;;;34.91;25.35
71621;BME280;59471;42.254;23.102;2023-08-21T11:58:44;95992.56;;;35.06;25.51
71621;BME280;59471;42.254;23.102;2023-08-21T12:01:11;95990.56;;;35.15;24.39
71621;BME280;59471;42.254;23.102;2023-08-21T12:03:41;95988.19;;;35.14;24.69
71621;BME280;59471;42.254;23.102;2023-08-21T12:06:10;95983.06;;;34.82;24.95
71621;BME280;59471;42.254;23.102;2023-08-21T12:08:38;95989.28;;;34.62;25.24
71621;BME280;59471;42.254;23.102;2023-08-21T12:11:05;95977.41;;;34.67;25.06
71621;BME280;59471;42.254;23.102;2023-08-21T12:13:31;95973.66;;;35.10;25.85
71621;BME280;59471;42.254;23.102;2023-08-21T12:15:57;95972.22;;;35.24;25.87
71621;BME280;59471;42.254;23.102;2023-08-21T12:18:23;95967.19;;;35.14;24.38
71621;BME280;59471;42.254;23.102;2023-08-21T12:20:49;95972.28;;;34.95;25.42
71621;BME280;59471;42.254;23.102;2023-08-21T12:23:14;95977.97;;;35.02;25.71
71621;BME280;59471;42.254;23.102;2023-08-21T12:25:40;95965.00;;;35.28;24.79
71621;BME280;59471;42.254;23.102;2023-08-21T12:28:07;95961.34;;;35.24;24.54
71621;BME280;59471;42.254;23.102;2023-08-21T12:30:33;95962.66;;;35.39;25.39
71621;BME280;59471;42.254;23.102;2023-08-21T12:32:59;95960.41;;;35.41;24.36
71621;BME280;59471;42.254;23.102;2023-08-21T12:35:25;95959.47;;;35.58;25.21
71621;BME280;59471;42.254;23.102;2023-08-21T12:37:50;95966.53;;;35.17;24.68
71621;BME280;59471;42.254;23.102;2023-08-21T12:40:16;95962.63;;;34.76;26.41
71621;BME280;59471;42.254;23.102;2023-08-21T12:42:42;95961.63;;;35.32;25.18
71621;BME280;59471;42.254;23.102;2023-08-21T12:45:07;95948.06;;;35.23;24.89
71621;BME280;59471;42.254;23.102;2023-08-21T12:47:33;95948.53;;;35.25;25.53
71621;BME280;59471;42.254;23.102;2023-08-21T12:49:59;95956.78;;;35.70;24.21
71621;BME280;59471;42.254;23.102;2023-08-21T12:52:24;95958.09;;;35.10;25.79